General Aviation Weather

Text Reports

Enter one or more of the following location identifiers separated by a space:

Zip Code, Four-Character ICAO or Three-Character IATA airport codes.

METAR - Aviation Routine Weather Report
KBKL - Cleveland Burke, Ohio
Updated at 6:53 AM GMT on July 30, 2015 (2:53 AM EDT):
METAR KBKL 300653Z 29011KT 10SM SCT047 25/17 A2992 RMK AO2 SLP124 T02500172 $
TAF - Terminal Area Forecast
KBKL - Cleveland Burke, Ohio
Updated at 6:53 AM GMT on July 30, 2015 (2:53 AM EDT):
No TAF is currently available for this location.
Decoded:
No decoded TAF is available.
PIREP - Pilot Weather Report
KBKL - Cleveland Burke, Ohio
Updated at 6:53 AM GMT on July 30, 2015 (2:53 AM EDT):
No PIREP is currently available for this location.
AIRMET - Airmens Meteorological Information
KBKL - Cleveland Burke, Ohio
Updated at 6:53 AM GMT on July 30, 2015 (2:53 AM EDT):
No AIRMET is currently available for this location.
SIGMET - Significant Meteorological Information
KBKL - Cleveland Burke, Ohio
Updated at 6:53 AM GMT on July 30, 2015 (2:53 AM EDT):
No SIGMET is currently available for this location.
NOTAM - Notice to Airmen
KBKL - Cleveland Burke, Ohio
Updated at 6:53 AM GMT on July 30, 2015 (2:53 AM EDT):
No NOTAM is currently available for this location.
Forecast Area
KBKL - Cleveland Burke, Ohio
Updated at 6:53 AM GMT on July 30, 2015 (2:53 AM EDT):
No NOTAM is currently available for this location.
Aviation Weather Maps